LIRI Informações do Aeroporto

Informações da Pista
Pista 05 Comprimento 4577 ft Largura 148 ft
Elevação 82 ft Limite 0 ft Heading 48
Pista 23 Comprimento 4577 ft Largura 148 ft
Elevação 119 ft Limite 312 ft Heading 228
Frequências do Aeroporto
Tipo AFIS Nome SALERNO IN Frequência 119.175 MHZ
Navaids do Aeroporto
Informações meteorológicas do aeroporto e NOTAM
ADDS - METARS form results

(1345 UTC 25 June 2019)
Data provider http://aviationweather.gov/metar/data/
 
METAR text: LIRI 251250Z 35011KT 9999 FEW040 32/15 Q1017
Conditions at: LIRI (PONTECAGNANO (AF, IT) observed 1250 UTC 25 June 2019
Temperature: 32.0°C (90°F)
Dewpoint: 15.0°C (59°F) [RH = 36%]
Pressure (altimeter): 30.03 inches Hg (1017.0 mb)
Winds: from the N (350 degrees) at 13 MPH (11 knots; 5.7 m/s)
Visibility: 6 or more miles (10+ km)
Ceiling: at least 12,000 feet AGL
Clouds: few clouds at 4000 feet AGL
Weather: no significant weather observed at this time